Aérodrome :
LOGIN :

S'inscrire | Disclaimer

   EN    FR    IT 

 










Légende :    VFR   VFR Marginal   IFR   IFR Intensif   IFR Très Intensif
Visi : 
Plafond : 
>= 8 km
>= 3000ft
5 à 8 km
1000 à 3000 ft
1500m à 5 km
500 à 1000 ft
800 à 1500m
200 à 500 ft
< 800m
< 200 ft
Symboles :   Orages  Brouillard  Fortes neiges  Fortes précipitations  Vent > 20 kt
SIGMETs :   Divers  Orages  Givrage  Turbulence  Onde Orograph.  Cendres Volcan.






- Altitude de l'aérodrome : 461 ft
- Code IATA : WIE


ETOU - Wiesbaden Army

DERNIER METAR :
  • 101156Z AUTO 22004KT 9999 OVC020 10/08 A2994 RMK AO2 RAE1057RAB05E16 SLP143 P0000 60007 70011 T00980079 10098 20080 58004 $

METARs EXPIRÉS :
  • 101116Z AUTO 25008KT 9999 OVC019 10/08 A2995 RMK AO2 RAE1057RAB05E16 CIG 018 RWY07 SLP147 $
  • 101105Z AUTO 24003KT 9999 -RA OVC017 09/09 A2995 RMK AO2 RAE1057RAB05 SLP147 $
  • 101057Z AUTO 23003KT 9999 OVC017 09/09 A2995 RMK AO2 RAE57 SLP147 $
  • 100956Z AUTO 27008KT 9999 -RA OVC025 09/08 A2996 RMK AO2 CIG 023 RWY07 SLP150 P0001 T00910083 $

TAF TAF ETOU
Valide du 09 à 20h jusqu'au 11 à 02h UTC


092015Z 0920/1102 20009KT 9999 -DZ BKN040 620509 QNH2989INS
BECMG 1000/1001 22009KT 6000 -RA BR OVC009 620509 QNH2985INS
BECMG 1005/1006 22010G15KT 8000 -SHRA BKN010 610509 510006 QNH2986INS
BECMG 1010/1011 VRB06KT 8000 -SHRA OVC015 610508 510006 QNH2985INS
BECMG 1016/1017 17009KT 9999 NSW BKN030 620553 QNH2979INS
BECMG 1100/1101 20009KT 9000 -RA OVC015 620607 510006 QNH2977INS TX13/0920Z TN08/1004Z LAST NO AMDS AFT 0920 NEXT 1105



MET'MAP, la Météo Aéronautique d'un coup d'oeil ! - Copyright ORBIFLY Décembre 2007 - Disclaimer

ORBIFLY MET'MAP TEAM :

Programmation & Développement : Alexandra Zaïnal
Sur une idée originale de : Baudouin d'Aumeries
Assistance à la programmation : Marc-Olivier Méhu
Soutien technique & logistique : Manuel Goepfert

Contact : metmap@orbifly.com




SOURCES & CREDITS :

   NOAA